Latest Weather Observations for Lockhart River

IDQ60801

Issued at 10:13 am EST Tuesday 7 December 2021 (issued every 10 minutes, with the page automatically refreshed every 10 minutes)

About weather observations | Map of weather stations | Latest weather observations for QLD | Other Formats
Station Details ID: 028008 Name: LOCKHART RIVER AIRPORT Lat: -12.79 Lon: 143.30 Height: 18.5 m
Data from the previous 72 hours. | See also: Recent months at Lockhart River
Date/Time
EST
Temp
°C
App
Temp
°C
Dew
Point
°C
Rel
Hum
%
Delta-T
°C
Wind Press
QNH
hPa
Press
MSL
hPa
Rain since
9am
mm
Dir  Spd
km/h
Gust
km/h
Spd
kts
Gust
kts
07/10:00am 32.3 34.2 23.8 61 5.9 ESE 20 33 11 18 1009.2 1009.1 0.0
07/09:30am 31.7 33.3 23.8 63 5.5 SE 22 35 12 19 1009.2 1009.1 0.0
07/09:00am 29.8 31.6 24.9 75 3.4 SSE 24 33 13 18 1009.4 1009.3 0.0
07/08:30am 29.4 33.2 24.7 76 3.3 S 13 22 7 12 1009.3 1009.2 0.0
07/08:00am 29.7 33.8 24.6 74 3.6 SSE 11 17 6 9 1009.1 1009.0 0.0
07/07:30am 28.4 33.5 24.6 80 2.6 SSW 6 9 3 5 1009.0 1008.9 0.0
07/07:00am 26.8 33.1 24.8 89 1.4 CALM 0 0 0 0 1008.6 1008.5 0.0
07/06:30am 26.2 32.7 25.0 93 0.8 CALM 0 0 0 0 1008.3 1008.2 0.0
07/06:00am 25.6 30.7 24.7 95 0.6 SE 6 11 3 6 1008.0 1007.9 0.0
07/05:30am 25.7 31.2 24.7 94 0.7 SE 4 7 2 4 1007.5 1007.4 0.0
07/05:00am 25.9 31.2 24.9 94 0.7 S 6 7 3 4 1007.1 1007.0 0.0
07/04:30am 25.6 31.1 24.7 95 0.6 SSW 4 7 2 4 1006.8 1006.7 0.0
07/04:00am 25.2 30.4 24.2 94 0.7 WNW 4 9 2 5 1006.7 1006.6 0.0
07/03:30am 25.4 31.4 24.2 93 0.8 CALM 0 0 0 0 1006.4 1006.3 0.0
07/03:00am 25.0 30.8 24.0 94 0.7 CALM 0 0 0 0 1006.5 1006.4 0.0
07/02:30am 25.3 30.7 23.9 92 1.0 W 2 6 1 3 1006.7 1006.6 0.0
07/02:00am 25.1 29.6 23.7 92 1.0 WNW 6 7 3 4 1007.0 1006.9 0.0
07/01:30am 26.2 32.0 23.9 87 1.6 CALM 0 0 0 0 1007.2 1007.1 0.0
07/01:00am 26.2 31.4 24.2 89 1.4 SSE 4 7 2 4 1007.6 1007.5 0.0
07/12:30am 25.7 30.2 23.9 90 1.2 NW 7 7 4 4 1007.9 1007.8 0.0
07/12:00am 26.0 31.5 24.0 89 1.4 WNW 2 7 1 4 1008.1 1008.0 0.0
 
Date/Time
EST
Temp
°C
App
Temp
°C
Dew
Point
°C
Rel
Hum
%
Delta-T
°C
Wind Press
QNH
hPa
Press
MSL
hPa
Rain since
9am
mm
Dir  Spd
km/h
Gust
km/h
Spd
kts
Gust
kts
06/11:30pm 26.0 30.5 23.9 88 1.4 W 7 9 4 5 1008.5 1008.4 0.0
06/11:00pm 26.4 31.2 24.1 87 1.6 W 6 13 3 7 1008.4 1008.3 0.0
06/10:30pm 26.0 31.0 23.9 88 1.4 NW 4 7 2 4 1008.5 1008.4 0.0
06/10:00pm 26.8 32.6 23.9 84 2.0 CALM 0 9 0 5 1008.4 1008.3 0.0
06/09:30pm 27.7 32.0 23.7 79 2.8 SSE 7 9 4 5 1008.2 1008.1 0.0
06/09:00pm 27.9 32.4 23.7 78 2.9 SSE 6 9 3 5 1007.9 1007.8 0.0
06/08:30pm 28.4 32.0 23.8 76 3.2 SE 11 13 6 7 1007.5 1007.4 0.0
06/08:00pm 28.6 31.7 23.5 74 3.5 SE 13 19 7 10 1007.2 1007.1 0.0
06/07:30pm 29.0 31.4 23.7 73 3.7 SE 17 22 9 12 1006.9 1006.8 0.0
06/07:00pm 29.2 31.6 23.6 72 3.9 ESE 17 26 9 14 1006.7 1006.6 0.0
06/06:30pm 29.7 31.0 22.4 65 5.0 ESE 19 26 10 14 1006.6 1006.5 0.0
06/06:00pm 30.2 31.5 21.6 60 5.8 ESE 17 24 9 13 1006.4 1006.3 0.0
06/05:30pm 30.8 31.7 21.9 59 6.0 ESE 20 28 11 15 1006.0 1005.9 0.0
06/05:00pm 31.2 32.1 21.9 57 6.3 E 20 28 11 15 1005.7 1005.6 0.0
06/04:30pm 31.4 32.0 21.3 55 6.8 ESE 20 32 11 17 1005.3 1005.2 0.0
06/04:00pm 31.9 32.4 22.0 55 6.7 E 22 32 12 17 1005.2 1005.1 0.0
06/03:30pm 31.4 31.0 21.6 56 6.6 ESE 26 35 14 19 1005.2 1005.1 0.0
06/03:00pm 32.3 32.5 22.7 57 6.6 ESE 26 41 14 22 1005.4 1005.3 0.0
06/02:30pm 31.6 31.1 21.5 55 6.8 ESE 26 39 14 21 1005.5 1005.4 0.0
06/02:00pm 31.9 31.4 21.4 53 7.1 ESE 26 35 14 19 1006.0 1005.9 0.0
06/01:30pm 32.1 31.8 22.5 57 6.6 E 28 37 15 20 1006.3 1006.2 0.0
06/01:00pm 31.8 31.9 21.9 55 6.7 ESE 24 35 13 19 1006.6 1006.5 0.0
06/12:30pm 31.5 31.8 22.2 57 6.3 E 24 41 13 22 1006.9 1006.8 0.0
06/12:00pm 32.3 33.3 23.5 59 6.1 ESE 24 35 13 19 1007.4 1007.3 0.0
06/11:30am 31.8 32.9 21.9 55 6.7 ESE 19 32 10 17 1007.7 1007.6 0.0
06/11:00am 30.5 31.4 21.6 59 6.0 E 19 30 10 16 1007.9 1007.8 0.0
06/10:30am 31.5 32.6 21.9 56 6.5 ESE 19 26 10 14 1008.0 1007.9 0.0
06/10:00am 31.5 33.1 22.2 57 6.3 ESE 17 28 9 15 1008.1 1008.0 0.0
06/09:30am 31.6 33.8 22.6 59 6.2 ESE 15 20 8 11 1008.4 1008.3 0.0
06/09:00am 31.1 33.5 23.0 62 5.6 SSE 15 20 8 11 1008.3 1008.2 0.0
06/08:30am 30.0 32.5 22.4 63 5.2 SE 13 19 7 10 1008.1 1008.0 0.0
06/08:00am 28.8 33.4 23.2 71 3.8 S 4 7 2 4 1008.1 1008.0 0.0
06/07:30am 27.0 31.4 22.8 78 2.8 SSW 4 15 2 8 1008.0 1007.9 0.0
06/07:00am 25.0 30.6 23.6 92 1.0 CALM 0 0 0 0 1007.8 1007.7 0.0
06/06:30am 23.3 28.4 22.6 96 0.5 CALM 0 0 0 0 1007.5 1007.4 0.0
06/06:00am 23.0 27.9 22.3 96 0.5 CALM 0 0 0 0 1007.2 1007.1 0.0
06/05:30am 23.3 28.3 22.5 95 0.5 CALM 0 0 0 0 1006.7 1006.6 0.0
06/05:00am 23.6 28.7 22.6 94 0.7 CALM 0 0 0 0 1006.5 1006.4 0.0
06/04:30am 23.9 27.9 22.7 93 0.8 NW 6 7 3 4 1006.4 1006.3 0.0
06/04:00am 24.4 29.6 22.8 91 1.1 CALM 0 0 0 0 1006.1 1006.0 0.0
06/03:30am 24.5 29.3 22.8 90 1.1 N 2 7 1 4 1006.0 1005.9 0.0
06/03:00am 24.3 28.1 22.7 91 1.1 NW 7 9 4 5 1006.1 1006.0 0.0
06/02:30am 27.2 31.0 22.8 77 3.0 E 7 15 4 8 1006.2 1006.1 0.0
06/02:00am 24.8 29.1 22.7 88 1.4 E 4 7 2 4 1006.3 1006.2 0.0
06/01:30am 25.2 28.7 22.1 83 2.1 WSW 7 11 4 6 1007.0 1006.9 0.0
06/01:00am 26.3 29.1 23.0 82 2.2 E 13 17 7 9 1007.1 1007.0 0.0
06/12:30am 25.3 28.5 22.4 84 1.9 ESE 9 11 5 6 1007.4 1007.3 0.0
06/12:00am 25.6 30.1 22.9 85 1.8 SSE 4 9 2 5 1007.8 1007.7 0.0
 
Date/Time
EST
Temp
°C
App
Temp
°C
Dew
Point
°C
Rel
Hum
%
Delta-T
°C
Wind Press
QNH
hPa
Press
MSL
hPa
Rain since
9am
mm
Dir  Spd
km/h
Gust
km/h
Spd
kts
Gust
kts
05/11:30pm 25.1 30.2 22.6 86 1.7 CALM 0 0 0 0 1007.6 1007.5 0.0
05/11:00pm 25.6 30.6 22.5 83 2.1 CALM 0 0 0 0 1007.8 1007.7 0.0
05/10:30pm 26.6 31.1 22.2 77 3.0 S 2 9 1 5 1007.8 1007.7 0.0
05/10:00pm 27.5 30.9 22.0 72 3.7 SSW 7 9 4 5 1008.1 1008.0 0.0
05/09:30pm 28.4 31.3 21.7 67 4.5 SSE 9 11 5 6 1007.9 1007.8 0.0
05/09:00pm 28.8 30.8 21.6 65 4.8 SE 13 17 7 9 1007.9 1007.8 0.0
05/08:30pm 28.8 30.6 21.8 66 4.7 ESE 15 20 8 11 1007.7 1007.6 0.0
05/08:00pm 28.9 31.5 21.9 66 4.7 ESE 11 15 6 8 1007.2 1007.1 0.0
05/07:30pm 29.2 30.8 22.2 66 4.7 ESE 17 22 9 12 1006.8 1006.7 0.0
05/07:00pm 29.2 31.3 21.7 64 5.1 ESE 13 19 7 10 1006.8 1006.7 0.0
05/06:30pm 29.7 30.7 21.1 60 5.7 ESE 17 24 9 13 1006.7 1006.6 0.0
05/06:00pm 30.3 30.6 20.5 55 6.5 ESE 19 26 10 14 1006.3 1006.2 0.0
05/05:30pm 30.9 32.1 21.4 57 6.4 E 17 26 9 14 1006.1 1006.0 0.0
05/05:00pm 31.0 31.1 20.3 53 7.1 ESE 20 30 11 16 1006.0 1005.9 0.0
05/04:30pm 31.7 31.9 20.6 51 7.4 E 20 30 11 16 1005.7 1005.6 0.0
05/04:00pm 32.0 31.6 20.9 52 7.5 ESE 24 35 13 19 1005.7 1005.6 0.0
05/03:30pm 32.3 32.1 20.5 49 7.9 ESE 22 35 12 19 1005.6 1005.5 0.0
05/03:00pm 32.8 32.3 20.7 49 8.1 ESE 24 39 13 21 1005.8 1005.7 0.0
05/02:30pm 32.9 31.7 20.8 49 8.1 ESE 28 37 15 20 1005.9 1005.8 0.0
05/02:00pm 33.7 33.2 21.5 49 8.3 SE 26 41 14 22 1006.2 1006.1 0.0
05/01:30pm 33.1 32.4 20.3 47 8.5 ESE 24 35 13 19 1006.6 1006.5 0.0
05/01:00pm 33.0 32.6 20.9 49 8.1 ESE 24 35 13 19 1006.6 1006.5 0.0
05/12:30pm 33.2 33.8 21.0 48 8.2 ESE 19 30 10 16 1006.7 1006.6 0.0
05/12:00pm 32.9 33.4 22.0 52 7.4 ESE 22 35 12 19 1007.0 1006.9 0.0
05/11:30am 32.5 32.3 22.0 54 7.1 SE 26 39 14 21 1007.3 1007.2 0.0
05/11:00am 32.3 32.3 20.9 51 7.7 ESE 22 35 12 19 1007.7 1007.6 0.0
05/10:30am 32.6 34.5 23.8 59 6.1 E 20 30 11 16 1007.9 1007.8 0.0
05/10:00am 32.2 34.4 22.6 57 6.6 ESE 15 26 8 14 1008.0 1007.9 0.0
05/09:30am 31.6 33.1 22.0 56 6.5 ESE 17 28 9 15 1008.2 1008.1 0.0
05/09:00am 31.4 32.7 22.4 59 6.1 E 19 26 10 14 1008.3 1008.2 0.0
05/08:30am 30.8 33.2 22.9 62 5.4 SSE 15 24 8 13 1008.3 1008.2 0.0
05/08:00am 30.2 33.5 23.9 69 4.4 SE 13 17 7 9 1008.3 1008.2 0.0
05/07:30am 28.5 33.6 24.1 77 3.0 SSW 4 7 2 4 1008.1 1008.0 0.0
05/07:00am 25.7 31.5 23.9 90 1.2 CALM 0 0 0 0 1007.9 1007.8 0.0
05/06:30am 24.5 29.5 23.8 96 0.5 WNW 4 7 2 4 1007.6 1007.5 0.0
05/06:00am 24.3 29.9 23.6 96 0.5 CALM 0 0 0 0 1007.1 1007.0 0.0
05/05:30am 24.5 30.1 23.5 94 0.7 CALM 0 0 0 0 1006.7 1006.6 0.0
05/05:00am 25.0 30.7 23.8 93 0.8 CALM 0 0 0 0 1006.7 1006.6 0.0
05/04:30am 25.1 30.8 23.7 92 1.0 CALM 0 0 0 0 1006.6 1006.5 0.0
05/04:00am 25.6 30.9 23.7 89 1.3 WSW 2 7 1 4 1006.4 1006.3 0.0
05/03:30am 27.2 31.7 23.9 82 2.3 SSE 7 13 4 7 1006.4 1006.3 0.0
05/03:00am 27.4 31.6 24.1 82 2.3 SE 9 13 5 7 1006.4 1006.3 0.0
05/02:30am 27.7 31.7 23.7 79 2.8 SSE 9 13 5 7 1006.7 1006.6 0.0
05/02:00am 28.2 31.5 23.8 77 3.0 SE 13 17 7 9 1006.8 1006.7 0.0
05/01:30am 28.2 31.6 24.0 78 2.9 SSE 13 17 7 9 1006.9 1006.8 0.0
05/01:00am 28.5 31.6 24.1 77 3.1 SE 15 20 8 11 1007.2 1007.1 0.0
05/12:30am 28.7 31.7 24.0 76 3.3 SE 15 20 8 11 1007.4 1007.3 0.0
05/12:00am 28.7 31.5 24.3 77 3.1 SE 17 20 9 11 1007.4 1007.3 0.0
 
Date/Time
EST
Temp
°C
App
Temp
°C
Dew
Point
°C
Rel
Hum
%
Delta-T
°C
Wind Press
QNH
hPa
Press
MSL
hPa
Rain since
9am
mm
Dir  Spd
km/h
Gust
km/h
Spd
kts
Gust
kts
04/11:30pm 28.7 31.5 24.3 77 3.1 SE 17 22 9 12 1007.9 1007.8 0.0
04/11:00pm 28.9 32.2 24.5 77 3.1 SE 15 22 8 12 1008.2 1008.1 0.0
04/10:30pm 29.0 32.1 24.8 78 2.9 SE 17 20 9 11 1008.3 1008.2 0.0
04/10:00pm 28.9 33.1 24.7 78 2.9 SE 11 17 6 9 1008.1 1008.0 0.0
04/09:30pm 28.8 32.9 24.6 78 2.9 SE 11 17 6 9 1008.0 1007.9 0.0
04/09:00pm 28.9 33.2 24.2 76 3.3 SE 9 13 5 7 1008.0 1007.9 0.0
04/08:30pm 29.0 32.7 23.9 74 3.5 SE 11 13 6 7 1007.8 1007.7 0.0
04/08:00pm 29.2 33.4 24.1 74 3.5 SE 9 13 5 7 1007.8 1007.7 0.0
04/07:30pm 29.4 32.7 23.8 72 3.9 ESE 13 17 7 9 1007.5 1007.4 0.0
04/07:00pm 29.6 32.7 23.5 69 4.2 ESE 13 19 7 10 1007.3 1007.2 0.0
04/06:30pm 29.9 31.5 22.9 66 4.8 ESE 19 26 10 14 1007.0 1006.9 0.0
04/06:00pm 30.5 32.4 22.7 63 5.3 ESE 17 24 9 13 1006.6 1006.5 0.0
04/05:30pm 31.0 31.9 22.0 58 6.1 SE 20 26 11 14 1006.5 1006.4 0.0
04/05:00pm 31.6 33.4 22.6 59 6.2 ESE 17 24 9 13 1006.2 1006.1 0.0
04/04:30pm 32.2 33.1 22.0 55 6.9 ESE 20 30 11 16 1005.9 1005.8 0.0
04/04:00pm 32.2 32.7 22.0 55 7.0 SE 22 32 12 17 1006.0 1005.9 0.0
04/03:30pm 32.6 33.4 22.4 55 7.0 ESE 22 32 12 17 1006.2 1006.1 0.0
04/03:00pm 32.0 33.7 23.0 59 6.2 E 19 28 10 15 1006.5 1006.4 0.0
04/02:30pm 32.3 33.3 22.1 55 6.9 E 20 30 11 16 1006.9 1006.8 0.0
04/02:00pm 32.0 32.8 22.4 57 6.6 ESE 22 39 12 21 1007.3 1007.2 0.0
04/01:30pm 32.5 33.9 22.6 56 6.8 ESE 19 30 10 16 1007.7 1007.6 0.0
04/01:00pm 32.2 33.1 22.6 57 6.6 ESE 22 33 12 18 1008.2 1008.1 0.0
04/12:30pm 32.6 33.9 23.3 58 6.4 E 22 30 12 16 1008.4 1008.3 0.0
04/12:00pm 32.3 33.6 23.3 59 6.2 E 22 32 12 17 1008.6 1008.5 0.0
04/11:30am 31.9 32.2 22.3 56 6.5 ESE 24 33 13 18 1009.1 1009.0 0.0
04/11:00am 32.5 33.2 22.9 57 6.6 ESE 24 32 13 17 1009.5 1009.4 0.0
04/10:30am 32.0 33.4 23.5 60 5.9 ESE 22 32 12 17 1009.7 1009.6 0.0

Other formats

Comma delimited format used in spreadsheet applications
http://www.bom.gov.au/fwo/IDQ60801/IDQ60801.94186.axf

JavaScript Object Notation format (JSON) in row-major order
http://www.bom.gov.au/fwo/IDQ60801/IDQ60801.94186.json

Data quality

Most of these data are generated automatically and are frequently updated. Quality checks on data are not normally performed. It is possible for incorrect values to appear. Refer to information at About Latest Weather Observations and please check the disclaimer before using these data.